SWR253 LLBG-LSZH
Flight info
| Callsign | SWR253 |
|---|---|
| Flight time | 3h 48m |
| Altitude | 34000 |
| Route | SUVAS1E SUVAS N128 OTHON UN128 RDS UL609 MES DCT DISOR DCT LONTA UL608 DOLEV DCT GORPA DCT ERKIR DCT KPT L856 NEGRA NEGRA2A |
| Aircraft | A321/M-SDE3FGHIRWY/LB1 |
Departure
| Time | 2026-04-26 12:30 |
|---|---|
| Airport | Ben Gurion International Airport (LLBG) |
Arrival
| Time | 2026-04-26 16:18 |
|---|---|
| Airport | Zürich Airport (LSZH) |
| Time | Latitude | Longitude | Altitude | Speed | Heading |
|---|---|---|---|---|---|
| 2026-04-26 12:04 | 32.00426 | 34.87557 | 120 ft | 0 kts | 227° |
| 2026-04-26 12:04 | 32.00426 | 34.87556 | 120 ft | 0 kts | 227° |
| 2026-04-26 12:18 | 32.00426 | 34.87557 | 120 ft | 0 kts | 227° |
| 2026-04-26 12:22 | 32.00434 | 34.87566 | 120 ft | 4 kts | 218° |
| 2026-04-26 12:22 | 32.00457 | 34.87578 | 120 ft | 4 kts | 185° |
| 2026-04-26 12:22 | 32.00478 | 34.87580 | 115 ft | 4 kts | 189° |
| 2026-04-26 12:22 | 32.00503 | 34.87589 | 120 ft | 4 kts | 213° |
| 2026-04-26 12:23 | 32.00523 | 34.87610 | 120 ft | 4 kts | 235° |
| 2026-04-26 12:23 | 32.00535 | 34.87636 | 116 ft | 4 kts | 264° |
| 2026-04-26 12:23 | 32.00530 | 34.87665 | 116 ft | 4 kts | 307° |
| 2026-04-26 12:23 | 32.00511 | 34.87686 | 116 ft | 4 kts | 330° |
| 2026-04-26 12:24 | 32.00490 | 34.87697 | 120 ft | 0 kts | 347° |
| 2026-04-26 12:25 | 32.00493 | 34.87696 | 120 ft | 3 kts | 347° |
| 2026-04-26 12:25 | 32.00543 | 34.87685 | 116 ft | 12 kts | 358° |
| 2026-04-26 12:25 | 32.00626 | 34.87752 | 118 ft | 18 kts | 73° |
| 2026-04-26 12:25 | 32.00608 | 34.87918 | 117 ft | 23 kts | 58° |
| 2026-04-26 12:26 | 32.00761 | 34.88041 | 117 ft | 30 kts | 31° |
| 2026-04-26 12:26 | 32.00950 | 34.88180 | 118 ft | 33 kts | 30° |
| 2026-04-26 12:26 | 32.01152 | 34.88324 | 117 ft | 35 kts | 32° |
| 2026-04-26 12:26 | 32.01285 | 34.88430 | 119 ft | 35 kts | 39° |
| 2026-04-26 12:27 | 32.01479 | 34.88750 | 118 ft | 38 kts | 71° |
| 2026-04-26 12:27 | 32.01532 | 34.89059 | 120 ft | 39 kts | 80° |
| 2026-04-26 12:27 | 32.01589 | 34.89371 | 119 ft | 38 kts | 79° |
| 2026-04-26 12:27 | 32.01620 | 34.89622 | 116 ft | 24 kts | 77° |
| 2026-04-26 12:28 | 32.01732 | 34.89737 | 117 ft | 22 kts | 28° |
| 2026-04-26 12:28 | 32.01813 | 34.89799 | 117 ft | 20 kts | 46° |
| 2026-04-26 12:28 | 32.01820 | 34.89943 | 120 ft | 17 kts | 111° |
| 2026-04-26 12:28 | 32.01736 | 34.89971 | 117 ft | 8 kts | 206° |
| 2026-04-26 12:29 | 32.01726 | 34.89965 | 118 ft | 8 kts | 207° |
| 2026-04-26 12:29 | 32.01423 | 34.89769 | 120 ft | 90 kts | 209° |
| 2026-04-26 12:29 | 31.99627 | 34.88613 | 407 ft | 181 kts | 210° |
| 2026-04-26 12:30 | 31.98463 | 34.87957 | 1072 ft | 189 kts | 209° |
| 2026-04-26 12:30 | 31.97376 | 34.87130 | 1720 ft | 180 kts | 229° |
| 2026-04-26 12:30 | 31.96903 | 34.85843 | 2162 ft | 173 kts | 255° |
| 2026-04-26 12:31 | 31.96619 | 34.83614 | 2367 ft | 192 kts | 282° |
| 2026-04-26 12:31 | 31.96685 | 34.83355 | 2408 ft | 194 kts | 285° |
| 2026-04-26 12:31 | 31.97139 | 34.81794 | 2592 ft | 212 kts | 284° |
| 2026-04-26 12:32 | 31.97633 | 34.80077 | 2735 ft | 236 kts | 285° |
| 2026-04-26 12:32 | 31.98175 | 34.78166 | 3056 ft | 253 kts | 285° |
| 2026-04-26 12:32 | 31.99317 | 34.74145 | 4243 ft | 264 kts | 287° |
| 2026-04-26 12:33 | 31.99950 | 34.72098 | 4866 ft | 268 kts | 286° |
| 2026-04-26 12:33 | 32.00611 | 34.70025 | 5487 ft | 271 kts | 286° |
| 2026-04-26 12:33 | 32.01279 | 34.67942 | 6142 ft | 273 kts | 285° |
| 2026-04-26 12:33 | 32.01950 | 34.65842 | 6747 ft | 275 kts | 284° |
| 2026-04-26 12:34 | 32.02560 | 34.63711 | 7329 ft | 273 kts | 276° |
| 2026-04-26 12:34 | 32.02773 | 34.61500 | 7815 ft | 272 kts | 268° |
| 2026-04-26 12:34 | 32.02890 | 34.59272 | 7990 ft | 274 kts | 267° |
| 2026-04-26 12:34 | 32.03004 | 34.57042 | 8655 ft | 272 kts | 267° |
| 2026-04-26 12:35 | 32.03122 | 34.54809 | 9291 ft | 273 kts | 267° |
| 2026-04-26 12:35 | 32.03240 | 34.52566 | 9915 ft | 275 kts | 267° |
| 2026-04-26 12:35 | 32.03357 | 34.50283 | 10213 ft | 287 kts | 267° |
| 2026-04-26 12:35 | 32.03473 | 34.47855 | 10338 ft | 305 kts | 267° |
| 2026-04-26 12:36 | 32.03598 | 34.45295 | 10480 ft | 322 kts | 268° |
| 2026-04-26 12:36 | 32.03736 | 34.42645 | 10720 ft | 333 kts | 268° |
| 2026-04-26 12:36 | 32.03896 | 34.39912 | 11199 ft | 336 kts | 269° |
| 2026-04-26 12:36 | 32.04066 | 34.37155 | 11733 ft | 338 kts | 269° |
| 2026-04-26 12:37 | 32.04235 | 34.34389 | 12276 ft | 340 kts | 269° |
| 2026-04-26 12:37 | 32.04398 | 34.31606 | 12821 ft | 341 kts | 268° |
| 2026-04-26 12:37 | 32.04559 | 34.28811 | 13375 ft | 342 kts | 268° |
| 2026-04-26 12:37 | 32.04721 | 34.26002 | 13896 ft | 345 kts | 270° |
| 2026-04-26 12:38 | 32.05171 | 34.23195 | 14354 ft | 354 kts | 281° |
| 2026-04-26 12:38 | 32.06146 | 34.20490 | 14811 ft | 364 kts | 293° |
| 2026-04-26 12:38 | 32.07465 | 34.17914 | 15239 ft | 368 kts | 295° |
| 2026-04-26 12:38 | 32.08794 | 34.15323 | 15677 ft | 370 kts | 295° |
| 2026-04-26 12:39 | 32.10120 | 34.12718 | 16110 ft | 372 kts | 295° |
| 2026-04-26 12:39 | 32.11454 | 34.10086 | 16542 ft | 374 kts | 295° |
| 2026-04-26 12:39 | 32.12788 | 34.07449 | 16961 ft | 376 kts | 295° |
| 2026-04-26 12:39 | 32.14132 | 34.04790 | 17369 ft | 378 kts | 295° |
| 2026-04-26 12:40 | 32.15483 | 34.02124 | 17784 ft | 380 kts | 295° |
| 2026-04-26 12:40 | 32.16845 | 33.99442 | 18176 ft | 382 kts | 295° |
| 2026-04-26 12:40 | 32.18282 | 33.96792 | 18507 ft | 385 kts | 298° |
| 2026-04-26 12:40 | 32.19802 | 33.94215 | 18836 ft | 388 kts | 300° |
| 2026-04-26 12:41 | 32.21420 | 33.91595 | 19119 ft | 391 kts | 301° |
| 2026-04-26 12:41 | 32.23023 | 33.89040 | 19424 ft | 393 kts | 301° |
| 2026-04-26 12:41 | 32.24648 | 33.86437 | 19735 ft | 394 kts | 301° |
| 2026-04-26 12:41 | 32.26261 | 33.83819 | 20047 ft | 395 kts | 301° |
| 2026-04-26 12:42 | 32.27866 | 33.81174 | 20366 ft | 397 kts | 301° |
| 2026-04-26 12:42 | 32.29463 | 33.78514 | 20654 ft | 398 kts | 301° |
| 2026-04-26 12:42 | 32.31063 | 33.75834 | 20951 ft | 399 kts | 301° |
| 2026-04-26 12:42 | 32.32666 | 33.73150 | 21278 ft | 401 kts | 301° |
| 2026-04-26 12:43 | 32.34281 | 33.70449 | 21596 ft | 402 kts | 301° |
| 2026-04-26 12:43 | 32.35900 | 33.67745 | 21937 ft | 403 kts | 301° |
| 2026-04-26 12:43 | 32.37526 | 33.65028 | 22275 ft | 404 kts | 301° |
| 2026-04-26 12:43 | 32.39154 | 33.62309 | 22606 ft | 405 kts | 301° |
| 2026-04-26 12:44 | 32.40783 | 33.59584 | 22940 ft | 407 kts | 301° |
| 2026-04-26 12:44 | 32.42426 | 33.56841 | 23263 ft | 408 kts | 301° |
| 2026-04-26 12:44 | 32.44066 | 33.54098 | 23574 ft | 409 kts | 301° |
| 2026-04-26 12:44 | 32.45713 | 33.51339 | 23841 ft | 411 kts | 301° |
| 2026-04-26 12:45 | 32.47363 | 33.48571 | 24103 ft | 412 kts | 301° |
| 2026-04-26 12:45 | 32.49015 | 33.45792 | 24378 ft | 413 kts | 301° |
| 2026-04-26 12:45 | 32.50671 | 33.43008 | 24650 ft | 414 kts | 301° |
| 2026-04-26 12:45 | 32.52311 | 33.40255 | 24902 ft | 415 kts | 301° |
| 2026-04-26 12:46 | 32.53976 | 33.37463 | 25165 ft | 416 kts | 301° |
| 2026-04-26 12:46 | 32.55644 | 33.34658 | 25428 ft | 417 kts | 300° |
| 2026-04-26 12:46 | 32.57316 | 33.31845 | 25686 ft | 418 kts | 300° |
| 2026-04-26 12:46 | 32.58990 | 33.29024 | 25932 ft | 419 kts | 300° |
| 2026-04-26 12:47 | 32.60688 | 33.26162 | 26188 ft | 419 kts | 300° |
| 2026-04-26 12:47 | 32.62344 | 33.23362 | 26439 ft | 420 kts | 300° |
| 2026-04-26 12:47 | 32.64023 | 33.20522 | 26680 ft | 421 kts | 300° |
| 2026-04-26 12:47 | 32.65709 | 33.17671 | 26919 ft | 422 kts | 300° |
| 2026-04-26 12:48 | 32.67403 | 33.14813 | 27184 ft | 423 kts | 300° |
| 2026-04-26 12:48 | 32.69102 | 33.11942 | 27387 ft | 425 kts | 300° |
| 2026-04-26 12:48 | 32.70801 | 33.09064 | 27598 ft | 427 kts | 300° |
| 2026-04-26 12:48 | 32.72503 | 33.06169 | 27846 ft | 428 kts | 300° |
| 2026-04-26 12:49 | 32.74211 | 33.03259 | 28033 ft | 430 kts | 300° |
| 2026-04-26 12:49 | 32.75924 | 33.00344 | 28228 ft | 432 kts | 300° |
| 2026-04-26 12:49 | 32.77648 | 32.97414 | 28424 ft | 433 kts | 300° |
| 2026-04-26 12:49 | 32.79373 | 32.94483 | 28625 ft | 434 kts | 300° |
| 2026-04-26 12:50 | 32.81105 | 32.91538 | 28806 ft | 435 kts | 300° |
| 2026-04-26 12:50 | 32.82839 | 32.88585 | 29006 ft | 436 kts | 300° |
| 2026-04-26 12:50 | 32.84572 | 32.85628 | 29147 ft | 437 kts | 300° |
| 2026-04-26 12:50 | 32.86314 | 32.82653 | 29290 ft | 439 kts | 300° |
| 2026-04-26 12:51 | 32.88057 | 32.79674 | 29453 ft | 439 kts | 300° |
| 2026-04-26 12:51 | 32.89804 | 32.76691 | 29674 ft | 439 kts | 300° |
| 2026-04-26 12:51 | 32.91549 | 32.73714 | 29894 ft | 438 kts | 300° |
| 2026-04-26 12:51 | 32.93291 | 32.70738 | 30093 ft | 437 kts | 300° |
| 2026-04-26 12:52 | 32.95024 | 32.67764 | 30269 ft | 437 kts | 300° |
| 2026-04-26 12:52 | 32.96749 | 32.64797 | 30452 ft | 436 kts | 300° |
| 2026-04-26 12:52 | 32.98475 | 32.61829 | 30655 ft | 435 kts | 300° |
| 2026-04-26 12:52 | 33.00200 | 32.58864 | 30817 ft | 435 kts | 300° |
| 2026-04-26 12:53 | 33.01924 | 32.55908 | 30986 ft | 435 kts | 300° |
| 2026-04-26 12:53 | 33.03651 | 32.52950 | 31169 ft | 434 kts | 300° |
| 2026-04-26 12:53 | 33.05367 | 32.49996 | 31335 ft | 434 kts | 300° |
| 2026-04-26 12:53 | 33.07078 | 32.47036 | 31513 ft | 433 kts | 300° |
| 2026-04-26 12:54 | 33.08785 | 32.44079 | 31696 ft | 432 kts | 300° |
| 2026-04-26 12:54 | 33.10469 | 32.41168 | 31869 ft | 432 kts | 300° |
| 2026-04-26 12:54 | 33.12177 | 32.38223 | 32037 ft | 431 kts | 300° |
| 2026-04-26 12:54 | 33.13879 | 32.35286 | 32236 ft | 430 kts | 299° |
| 2026-04-26 12:55 | 33.15582 | 32.32345 | 32385 ft | 431 kts | 300° |
| 2026-04-26 12:55 | 33.17284 | 32.29398 | 32519 ft | 431 kts | 299° |
| 2026-04-26 12:55 | 33.18985 | 32.26448 | 32662 ft | 431 kts | 300° |
| 2026-04-26 12:55 | 33.20690 | 32.23489 | 32795 ft | 432 kts | 300° |
| 2026-04-26 12:56 | 33.22392 | 32.20536 | 32924 ft | 432 kts | 300° |
| 2026-04-26 12:56 | 33.24100 | 32.17578 | 33072 ft | 432 kts | 300° |
| 2026-04-26 12:56 | 33.25804 | 32.14626 | 33213 ft | 432 kts | 300° |
| 2026-04-26 12:56 | 33.27510 | 32.11668 | 33370 ft | 432 kts | 300° |
| 2026-04-26 12:57 | 33.29211 | 32.08708 | 33517 ft | 431 kts | 300° |
| 2026-04-26 12:57 | 33.30908 | 32.05747 | 33682 ft | 431 kts | 300° |
| 2026-04-26 12:57 | 33.32599 | 32.02791 | 33840 ft | 431 kts | 300° |
| 2026-04-26 12:58 | 33.35977 | 31.96873 | 33948 ft | 430 kts | 300° |
| 2026-04-26 12:58 | 33.37667 | 31.93917 | 33948 ft | 430 kts | 300° |
| 2026-04-26 12:58 | 33.41050 | 31.88015 | 33950 ft | 430 kts | 300° |
| 2026-04-26 12:59 | 33.44398 | 31.82141 | 33947 ft | 430 kts | 300° |
| 2026-04-26 12:59 | 33.47764 | 31.76221 | 33945 ft | 431 kts | 300° |
| 2026-04-26 13:00 | 33.51151 | 31.70273 | 33943 ft | 434 kts | 300° |
| 2026-04-26 13:00 | 33.54577 | 31.64246 | 33951 ft | 440 kts | 300° |
| 2026-04-26 13:01 | 33.58046 | 31.58129 | 33949 ft | 445 kts | 300° |
| 2026-04-26 13:01 | 33.61531 | 31.51953 | 33939 ft | 448 kts | 300° |
| 2026-04-26 13:02 | 33.65046 | 31.45732 | 33942 ft | 453 kts | 301° |
| 2026-04-26 13:02 | 33.68594 | 31.39450 | 33942 ft | 456 kts | 301° |
| 2026-04-26 13:03 | 33.72157 | 31.33134 | 33947 ft | 457 kts | 301° |
| 2026-04-26 13:03 | 33.75720 | 31.26812 | 33945 ft | 457 kts | 301° |
| 2026-04-26 13:04 | 33.79269 | 31.20475 | 33945 ft | 457 kts | 301° |
| 2026-04-26 13:04 | 33.82802 | 31.14160 | 33938 ft | 458 kts | 301° |
| 2026-04-26 13:05 | 33.86360 | 31.07786 | 33935 ft | 459 kts | 301° |
| 2026-04-26 13:05 | 33.89922 | 31.01410 | 33933 ft | 459 kts | 301° |
| 2026-04-26 13:06 | 33.93491 | 30.95022 | 33950 ft | 460 kts | 301° |
| 2026-04-26 13:06 | 33.97045 | 30.88619 | 33941 ft | 460 kts | 301° |
| 2026-04-26 13:07 | 34.00587 | 30.82240 | 33940 ft | 461 kts | 301° |
| 2026-04-26 13:07 | 34.04145 | 30.75818 | 33937 ft | 461 kts | 301° |
| 2026-04-26 13:08 | 34.07687 | 30.69376 | 33950 ft | 461 kts | 301° |
| 2026-04-26 13:08 | 34.11236 | 30.62920 | 33943 ft | 462 kts | 301° |
| 2026-04-26 13:09 | 34.14810 | 30.56462 | 33934 ft | 462 kts | 301° |
| 2026-04-26 13:09 | 34.18382 | 30.50003 | 33932 ft | 462 kts | 301° |
| 2026-04-26 13:10 | 34.21934 | 30.43527 | 33935 ft | 462 kts | 301° |
| 2026-04-26 13:10 | 34.25489 | 30.37050 | 33941 ft | 463 kts | 301° |
| 2026-04-26 13:11 | 34.29042 | 30.30555 | 33934 ft | 463 kts | 301° |
| 2026-04-26 13:11 | 34.32588 | 30.24049 | 33936 ft | 463 kts | 301° |
| 2026-04-26 13:12 | 34.36131 | 30.17541 | 33936 ft | 463 kts | 301° |
| 2026-04-26 13:12 | 34.39652 | 30.11066 | 33947 ft | 463 kts | 301° |
| 2026-04-26 13:13 | 34.43205 | 30.04547 | 33942 ft | 464 kts | 301° |
| 2026-04-26 13:13 | 34.47054 | 29.98283 | 33939 ft | 466 kts | 312° |
| 2026-04-26 13:14 | 34.51617 | 29.92692 | 33939 ft | 467 kts | 312° |
| 2026-04-26 13:14 | 34.56169 | 29.87076 | 33939 ft | 467 kts | 312° |
| 2026-04-26 13:15 | 34.60728 | 29.81458 | 33946 ft | 467 kts | 313° |
| 2026-04-26 13:15 | 34.64513 | 29.76783 | 33949 ft | 467 kts | 313° |
| 2026-04-26 13:16 | 34.69061 | 29.71152 | 33950 ft | 466 kts | 313° |
| 2026-04-26 13:16 | 34.73603 | 29.65519 | 33950 ft | 466 kts | 313° |
| 2026-04-26 13:17 | 34.80403 | 29.57062 | 33947 ft | 466 kts | 313° |
| 2026-04-26 13:18 | 34.87199 | 29.48589 | 33946 ft | 467 kts | 314° |
| 2026-04-26 13:19 | 34.94022 | 29.40078 | 33929 ft | 468 kts | 314° |
| 2026-04-26 13:19 | 34.98546 | 29.34427 | 33931 ft | 468 kts | 316° |
| 2026-04-26 13:20 | 35.03649 | 29.29505 | 33934 ft | 468 kts | 323° |
| 2026-04-26 13:20 | 35.08874 | 29.24748 | 33940 ft | 469 kts | 323° |
| 2026-04-26 13:21 | 35.14099 | 29.19968 | 33947 ft | 468 kts | 323° |
| 2026-04-26 13:21 | 35.19318 | 29.15198 | 33951 ft | 468 kts | 324° |
| 2026-04-26 13:22 | 35.24500 | 29.10454 | 33948 ft | 468 kts | 324° |
| 2026-04-26 13:22 | 35.29705 | 29.05678 | 33949 ft | 468 kts | 324° |
| 2026-04-26 13:23 | 35.34909 | 29.00889 | 33949 ft | 467 kts | 324° |
| 2026-04-26 13:23 | 35.40103 | 28.96096 | 33949 ft | 467 kts | 324° |
| 2026-04-26 13:24 | 35.45305 | 28.91305 | 33948 ft | 467 kts | 324° |
| 2026-04-26 13:24 | 35.50486 | 28.86520 | 33957 ft | 466 kts | 324° |
| 2026-04-26 13:25 | 35.55655 | 28.81736 | 33958 ft | 465 kts | 324° |
| 2026-04-26 13:25 | 35.60816 | 28.76950 | 33957 ft | 465 kts | 324° |
| 2026-04-26 13:26 | 35.65972 | 28.72155 | 33954 ft | 464 kts | 324° |
| 2026-04-26 13:26 | 35.71100 | 28.67396 | 33952 ft | 464 kts | 324° |
| 2026-04-26 13:27 | 35.76244 | 28.62608 | 33960 ft | 463 kts | 326° |
| 2026-04-26 13:27 | 35.81362 | 28.57831 | 33972 ft | 461 kts | 326° |
| 2026-04-26 13:28 | 35.86460 | 28.53069 | 33966 ft | 459 kts | 326° |
| 2026-04-26 13:28 | 35.91541 | 28.48308 | 33968 ft | 458 kts | 325° |
| 2026-04-26 13:29 | 35.96616 | 28.43546 | 33965 ft | 458 kts | 326° |
| 2026-04-26 13:29 | 36.01678 | 28.38793 | 33964 ft | 457 kts | 326° |
| 2026-04-26 13:30 | 36.06740 | 28.34030 | 33944 ft | 456 kts | 326° |
| 2026-04-26 13:30 | 36.11776 | 28.29276 | 33955 ft | 454 kts | 326° |
| 2026-04-26 13:31 | 36.16791 | 28.24525 | 33953 ft | 453 kts | 326° |
| 2026-04-26 13:31 | 36.21758 | 28.19821 | 33951 ft | 452 kts | 326° |
| 2026-04-26 13:32 | 36.26754 | 28.15090 | 33937 ft | 452 kts | 326° |
| 2026-04-26 13:32 | 36.31738 | 28.10345 | 33930 ft | 451 kts | 326° |
| 2026-04-26 13:33 | 36.36540 | 28.05285 | 33909 ft | 453 kts | 321° |
| 2026-04-26 13:33 | 36.41155 | 27.99958 | 33919 ft | 453 kts | 321° |
| 2026-04-26 13:34 | 36.45760 | 27.94630 | 33923 ft | 452 kts | 321° |
| 2026-04-26 13:34 | 36.50366 | 27.89303 | 33924 ft | 452 kts | 321° |
| 2026-04-26 13:35 | 36.54939 | 27.84006 | 33920 ft | 452 kts | 321° |
| 2026-04-26 13:35 | 36.59532 | 27.78674 | 33923 ft | 451 kts | 321° |
| 2026-04-26 13:36 | 36.64126 | 27.73333 | 33906 ft | 451 kts | 321° |
| 2026-04-26 13:36 | 36.68716 | 27.67984 | 33925 ft | 451 kts | 321° |
| 2026-04-26 13:37 | 36.73295 | 27.62633 | 33926 ft | 452 kts | 321° |
| 2026-04-26 13:37 | 36.77881 | 27.57269 | 33935 ft | 452 kts | 321° |
| 2026-04-26 13:38 | 36.82462 | 27.51909 | 33935 ft | 451 kts | 321° |
| 2026-04-26 13:38 | 36.87037 | 27.46539 | 33929 ft | 451 kts | 321° |
| 2026-04-26 13:39 | 36.91602 | 27.41165 | 33935 ft | 451 kts | 321° |
| 2026-04-26 13:39 | 36.96168 | 27.35787 | 33937 ft | 450 kts | 321° |
| 2026-04-26 13:40 | 37.00718 | 27.30415 | 33948 ft | 449 kts | 321° |
| 2026-04-26 13:40 | 37.05264 | 27.25054 | 33950 ft | 449 kts | 321° |
| 2026-04-26 13:41 | 37.09774 | 27.19726 | 33948 ft | 448 kts | 321° |
| 2026-04-26 13:41 | 37.14307 | 27.14356 | 33926 ft | 448 kts | 321° |
| 2026-04-26 13:42 | 37.18821 | 27.08993 | 33958 ft | 446 kts | 321° |
| 2026-04-26 13:42 | 37.23324 | 27.03634 | 33961 ft | 445 kts | 321° |
| 2026-04-26 13:43 | 37.27817 | 26.98278 | 33962 ft | 445 kts | 320° |
| 2026-04-26 13:43 | 37.32296 | 26.92922 | 33955 ft | 444 kts | 320° |
| 2026-04-26 13:44 | 37.36775 | 26.87570 | 33957 ft | 444 kts | 320° |
| 2026-04-26 13:44 | 37.41260 | 26.82243 | 33953 ft | 443 kts | 321° |
| 2026-04-26 13:45 | 37.45901 | 26.77169 | 33948 ft | 441 kts | 323° |
| 2026-04-26 13:45 | 37.50609 | 26.72232 | 33957 ft | 440 kts | 324° |
| 2026-04-26 13:46 | 37.55290 | 26.67250 | 33957 ft | 441 kts | 323° |
| 2026-04-26 13:46 | 37.59936 | 26.62204 | 33965 ft | 441 kts | 323° |
| 2026-04-26 13:47 | 37.64566 | 26.57144 | 33963 ft | 441 kts | 323° |
| 2026-04-26 13:47 | 37.69206 | 26.52082 | 33966 ft | 440 kts | 323° |
| 2026-04-26 13:48 | 37.73846 | 26.47043 | 33982 ft | 439 kts | 323° |
| 2026-04-26 13:48 | 37.78454 | 26.42042 | 33986 ft | 439 kts | 323° |
| 2026-04-26 13:49 | 37.83086 | 26.37004 | 33987 ft | 439 kts | 322° |
| 2026-04-26 13:49 | 37.87709 | 26.31957 | 33990 ft | 439 kts | 322° |
| 2026-04-26 13:50 | 37.92321 | 26.26896 | 33987 ft | 438 kts | 322° |
| 2026-04-26 13:50 | 37.96922 | 26.21827 | 33979 ft | 438 kts | 322° |
| 2026-04-26 13:51 | 38.01522 | 26.16759 | 33985 ft | 438 kts | 322° |
| 2026-04-26 13:51 | 38.06120 | 26.11693 | 33986 ft | 437 kts | 322° |
| 2026-04-26 13:52 | 38.10711 | 26.06620 | 33983 ft | 437 kts | 322° |
| 2026-04-26 13:52 | 38.15265 | 26.01568 | 33978 ft | 437 kts | 321° |
| 2026-04-26 13:53 | 38.19849 | 25.96489 | 33984 ft | 437 kts | 321° |
| 2026-04-26 13:53 | 38.24429 | 25.91401 | 33969 ft | 437 kts | 321° |
| 2026-04-26 13:54 | 38.29087 | 25.86467 | 33981 ft | 436 kts | 324° |
| 2026-04-26 13:54 | 38.33903 | 25.81788 | 33988 ft | 435 kts | 325° |
| 2026-04-26 13:55 | 38.40306 | 25.75556 | 34005 ft | 435 kts | 324° |
| 2026-04-26 13:56 | 38.48257 | 25.67572 | 34013 ft | 435 kts | 323° |
| 2026-04-26 13:56 | 38.52982 | 25.62822 | 34003 ft | 435 kts | 323° |
| 2026-04-26 13:57 | 38.57748 | 25.58048 | 34008 ft | 435 kts | 323° |
| 2026-04-26 13:57 | 38.62515 | 25.53263 | 34014 ft | 435 kts | 323° |
| 2026-04-26 13:58 | 38.67276 | 25.48471 | 34015 ft | 435 kts | 323° |
| 2026-04-26 13:58 | 38.72034 | 25.43676 | 34018 ft | 435 kts | 323° |
| 2026-04-26 13:59 | 38.76782 | 25.38883 | 34023 ft | 435 kts | 323° |
| 2026-04-26 13:59 | 38.81526 | 25.34082 | 34025 ft | 434 kts | 323° |
| 2026-04-26 14:00 | 38.90993 | 25.24464 | 34026 ft | 434 kts | 323° |
| 2026-04-26 14:01 | 38.95723 | 25.19659 | 34029 ft | 433 kts | 322° |
| 2026-04-26 14:01 | 39.00447 | 25.14839 | 34032 ft | 433 kts | 322° |
| 2026-04-26 14:02 | 39.05158 | 25.10019 | 34029 ft | 433 kts | 322° |
| 2026-04-26 14:02 | 39.09874 | 25.05200 | 34032 ft | 433 kts | 322° |
| 2026-04-26 14:03 | 39.14557 | 25.00412 | 34021 ft | 432 kts | 322° |
| 2026-04-26 14:03 | 39.19250 | 24.95582 | 34030 ft | 431 kts | 322° |
| 2026-04-26 14:04 | 39.23934 | 24.90757 | 34038 ft | 431 kts | 321° |
| 2026-04-26 14:04 | 39.28618 | 24.85933 | 34042 ft | 430 kts | 321° |
| 2026-04-26 14:05 | 39.32531 | 24.81900 | 34041 ft | 429 kts | 321° |
| 2026-04-26 14:05 | 39.37194 | 24.77090 | 34038 ft | 429 kts | 321° |
| 2026-04-26 14:06 | 39.41825 | 24.72299 | 34032 ft | 429 kts | 321° |
| 2026-04-26 14:06 | 39.46479 | 24.67473 | 34030 ft | 429 kts | 321° |
| 2026-04-26 14:07 | 39.51126 | 24.62630 | 34038 ft | 429 kts | 321° |
| 2026-04-26 14:07 | 39.55769 | 24.57793 | 34036 ft | 428 kts | 321° |
| 2026-04-26 14:08 | 39.60412 | 24.52955 | 34031 ft | 428 kts | 321° |
| 2026-04-26 14:08 | 39.65045 | 24.48114 | 34029 ft | 428 kts | 321° |
| 2026-04-26 14:09 | 39.69684 | 24.43270 | 34027 ft | 428 kts | 321° |
| 2026-04-26 14:09 | 39.74317 | 24.38413 | 34015 ft | 428 kts | 321° |
| 2026-04-26 14:10 | 39.78937 | 24.33548 | 34027 ft | 427 kts | 320° |
| 2026-04-26 14:10 | 39.83558 | 24.28691 | 34027 ft | 427 kts | 320° |
| 2026-04-26 14:11 | 39.90485 | 24.21400 | 34022 ft | 427 kts | 320° |
| 2026-04-26 14:11 | 39.95069 | 24.16550 | 34018 ft | 427 kts | 320° |
| 2026-04-26 14:12 | 39.99707 | 24.11634 | 34013 ft | 427 kts | 320° |
| 2026-04-26 14:12 | 40.04285 | 24.06792 | 34010 ft | 427 kts | 320° |
| 2026-04-26 14:13 | 40.11181 | 23.99463 | 34012 ft | 426 kts | 320° |
| 2026-04-26 14:14 | 40.15777 | 23.94567 | 34007 ft | 426 kts | 320° |
| 2026-04-26 14:14 | 40.20369 | 23.89661 | 34008 ft | 426 kts | 319° |
| 2026-04-26 14:15 | 40.24960 | 23.84758 | 33999 ft | 426 kts | 320° |
| 2026-04-26 14:15 | 40.29551 | 23.79850 | 33999 ft | 426 kts | 319° |
| 2026-04-26 14:16 | 40.34130 | 23.74933 | 33996 ft | 426 kts | 319° |
| 2026-04-26 14:16 | 40.38716 | 23.70012 | 33991 ft | 426 kts | 319° |
| 2026-04-26 14:17 | 40.43289 | 23.65076 | 33991 ft | 426 kts | 319° |
| 2026-04-26 14:17 | 40.47825 | 23.60163 | 33991 ft | 426 kts | 319° |
| 2026-04-26 14:18 | 40.52393 | 23.55217 | 33988 ft | 426 kts | 319° |
| 2026-04-26 14:18 | 40.56975 | 23.50275 | 34001 ft | 426 kts | 319° |
| 2026-04-26 14:19 | 40.61552 | 23.45325 | 33996 ft | 425 kts | 319° |
| 2026-04-26 14:19 | 40.66112 | 23.40360 | 33986 ft | 425 kts | 319° |
| 2026-04-26 14:20 | 40.70673 | 23.35385 | 33977 ft | 425 kts | 319° |
| 2026-04-26 14:20 | 40.75228 | 23.30404 | 33977 ft | 426 kts | 319° |
| 2026-04-26 14:21 | 40.79770 | 23.25460 | 33971 ft | 426 kts | 319° |
| 2026-04-26 14:21 | 40.84332 | 23.20469 | 33987 ft | 425 kts | 319° |
| 2026-04-26 14:22 | 40.88887 | 23.15465 | 33985 ft | 425 kts | 319° |
| 2026-04-26 14:22 | 40.93440 | 23.10465 | 33977 ft | 425 kts | 319° |
| 2026-04-26 14:23 | 40.97996 | 23.05459 | 33970 ft | 426 kts | 318° |
| 2026-04-26 14:23 | 41.02549 | 23.00440 | 33970 ft | 426 kts | 318° |
| 2026-04-26 14:24 | 41.07111 | 22.95405 | 33973 ft | 426 kts | 318° |
| 2026-04-26 14:24 | 41.11668 | 22.90361 | 33985 ft | 426 kts | 318° |
| 2026-04-26 14:25 | 41.16190 | 22.85333 | 33980 ft | 426 kts | 318° |
| 2026-04-26 14:25 | 41.20742 | 22.80266 | 33986 ft | 426 kts | 318° |
| 2026-04-26 14:26 | 41.25221 | 22.75116 | 33970 ft | 425 kts | 312° |
| 2026-04-26 14:26 | 41.29209 | 22.69302 | 33975 ft | 426 kts | 311° |
| 2026-04-26 14:27 | 41.33189 | 22.63468 | 33980 ft | 426 kts | 311° |
| 2026-04-26 14:27 | 41.37175 | 22.57628 | 33995 ft | 426 kts | 311° |
| 2026-04-26 14:28 | 41.41135 | 22.51820 | 33996 ft | 427 kts | 311° |
| 2026-04-26 14:28 | 41.45147 | 22.45920 | 33994 ft | 427 kts | 311° |
| 2026-04-26 14:29 | 41.49101 | 22.40078 | 33991 ft | 427 kts | 311° |
| 2026-04-26 14:29 | 41.53082 | 22.34188 | 33992 ft | 427 kts | 311° |
| 2026-04-26 14:30 | 41.57069 | 22.28288 | 33996 ft | 428 kts | 311° |
| 2026-04-26 14:30 | 41.61049 | 22.22381 | 33999 ft | 428 kts | 311° |
| 2026-04-26 14:31 | 41.65030 | 22.16472 | 34015 ft | 428 kts | 311° |
| 2026-04-26 14:31 | 41.69008 | 22.10563 | 34002 ft | 428 kts | 311° |
| 2026-04-26 14:32 | 41.72986 | 22.04616 | 34002 ft | 428 kts | 311° |
| 2026-04-26 14:32 | 41.76958 | 21.98663 | 34003 ft | 429 kts | 311° |
| 2026-04-26 14:33 | 41.80914 | 21.92744 | 34015 ft | 429 kts | 311° |
| 2026-04-26 14:33 | 41.84891 | 21.86780 | 34019 ft | 429 kts | 311° |
| 2026-04-26 14:34 | 41.88862 | 21.80803 | 34024 ft | 429 kts | 311° |
| 2026-04-26 14:34 | 41.92831 | 21.74810 | 34026 ft | 430 kts | 311° |
| 2026-04-26 14:35 | 41.96808 | 21.68799 | 34017 ft | 431 kts | 311° |
| 2026-04-26 14:35 | 42.00793 | 21.62773 | 34015 ft | 431 kts | 311° |
| 2026-04-26 14:36 | 42.04784 | 21.56738 | 34015 ft | 432 kts | 310° |
| 2026-04-26 14:36 | 42.08769 | 21.50674 | 34030 ft | 432 kts | 310° |
| 2026-04-26 14:37 | 42.12750 | 21.44606 | 34033 ft | 432 kts | 311° |
| 2026-04-26 14:37 | 42.16727 | 21.38526 | 34048 ft | 433 kts | 310° |
| 2026-04-26 14:38 | 42.20647 | 21.32371 | 34060 ft | 432 kts | 310° |
| 2026-04-26 14:38 | 42.24496 | 21.26206 | 34066 ft | 432 kts | 309° |
| 2026-04-26 14:39 | 42.28383 | 21.19999 | 34070 ft | 432 kts | 310° |
| 2026-04-26 14:39 | 42.32277 | 21.13784 | 34075 ft | 433 kts | 310° |
| 2026-04-26 14:40 | 42.36176 | 21.07580 | 34071 ft | 433 kts | 310° |
| 2026-04-26 14:40 | 42.40074 | 21.01354 | 34072 ft | 434 kts | 309° |
| 2026-04-26 14:41 | 42.43966 | 20.95099 | 34074 ft | 434 kts | 309° |
| 2026-04-26 14:41 | 42.47832 | 20.88885 | 34081 ft | 434 kts | 309° |
| 2026-04-26 14:42 | 42.51753 | 20.82589 | 34080 ft | 435 kts | 310° |
| 2026-04-26 14:42 | 42.55618 | 20.76347 | 34072 ft | 435 kts | 309° |
| 2026-04-26 14:43 | 42.59510 | 20.70050 | 34066 ft | 436 kts | 309° |
| 2026-04-26 14:43 | 42.63412 | 20.63737 | 34065 ft | 436 kts | 309° |
| 2026-04-26 14:44 | 42.67307 | 20.57410 | 34070 ft | 436 kts | 309° |
| 2026-04-26 14:44 | 42.71201 | 20.51076 | 34072 ft | 437 kts | 309° |
| 2026-04-26 14:45 | 42.75091 | 20.44722 | 34074 ft | 437 kts | 309° |
| 2026-04-26 14:45 | 42.78987 | 20.38365 | 34084 ft | 437 kts | 309° |
| 2026-04-26 14:46 | 42.82882 | 20.31993 | 34088 ft | 438 kts | 309° |
| 2026-04-26 14:46 | 42.86809 | 20.25713 | 34098 ft | 438 kts | 310° |
| 2026-04-26 14:47 | 42.90845 | 20.19490 | 34100 ft | 438 kts | 311° |
| 2026-04-26 14:47 | 42.94892 | 20.13269 | 34094 ft | 438 kts | 311° |
| 2026-04-26 14:48 | 42.98916 | 20.07006 | 34091 ft | 439 kts | 310° |
| 2026-04-26 14:48 | 43.02929 | 20.00716 | 34089 ft | 439 kts | 310° |
| 2026-04-26 14:49 | 43.06950 | 19.94405 | 34092 ft | 439 kts | 310° |
| 2026-04-26 14:49 | 43.10962 | 19.88094 | 34092 ft | 440 kts | 310° |
| 2026-04-26 14:50 | 43.14972 | 19.81774 | 34092 ft | 440 kts | 310° |
| 2026-04-26 14:50 | 43.18963 | 19.75484 | 34091 ft | 440 kts | 310° |
| 2026-04-26 14:51 | 43.22986 | 19.69138 | 34093 ft | 440 kts | 310° |
| 2026-04-26 14:51 | 43.26998 | 19.62788 | 34091 ft | 440 kts | 310° |
| 2026-04-26 14:52 | 43.31008 | 19.56428 | 34097 ft | 441 kts | 310° |
| 2026-04-26 14:52 | 43.35017 | 19.50040 | 34097 ft | 441 kts | 310° |
| 2026-04-26 14:53 | 43.39017 | 19.43648 | 34096 ft | 441 kts | 310° |
| 2026-04-26 14:53 | 43.43023 | 19.37249 | 34095 ft | 441 kts | 310° |
| 2026-04-26 14:54 | 43.47003 | 19.30873 | 34091 ft | 442 kts | 310° |
| 2026-04-26 14:54 | 43.51005 | 19.24444 | 34101 ft | 442 kts | 310° |
| 2026-04-26 14:55 | 43.54357 | 19.19052 | 34094 ft | 442 kts | 310° |
| 2026-04-26 14:55 | 43.58326 | 19.12649 | 34099 ft | 442 kts | 310° |
| 2026-04-26 14:56 | 43.62318 | 19.06192 | 34099 ft | 442 kts | 310° |
| 2026-04-26 14:56 | 43.66313 | 18.99725 | 34097 ft | 443 kts | 310° |
| 2026-04-26 14:57 | 43.70304 | 18.93245 | 34090 ft | 443 kts | 310° |
| 2026-04-26 14:57 | 43.74296 | 18.86753 | 34094 ft | 443 kts | 310° |
| 2026-04-26 14:58 | 43.78284 | 18.80247 | 34099 ft | 443 kts | 310° |
| 2026-04-26 14:58 | 43.82266 | 18.73743 | 34095 ft | 443 kts | 310° |
| 2026-04-26 14:59 | 43.86241 | 18.67221 | 34097 ft | 443 kts | 310° |
| 2026-04-26 14:59 | 43.90224 | 18.60683 | 34082 ft | 444 kts | 310° |
| 2026-04-26 15:00 | 43.94209 | 18.54129 | 34079 ft | 445 kts | 310° |
| 2026-04-26 15:00 | 43.98174 | 18.47591 | 34082 ft | 445 kts | 310° |
| 2026-04-26 15:01 | 44.02158 | 18.41000 | 34086 ft | 445 kts | 309° |
| 2026-04-26 15:01 | 44.06138 | 18.34403 | 34089 ft | 445 kts | 309° |
| 2026-04-26 15:02 | 44.10122 | 18.27789 | 34102 ft | 445 kts | 310° |
| 2026-04-26 15:02 | 44.14091 | 18.21184 | 34109 ft | 444 kts | 309° |
| 2026-04-26 15:03 | 44.18050 | 18.14574 | 34118 ft | 444 kts | 309° |
| 2026-04-26 15:03 | 44.22001 | 18.07971 | 34107 ft | 443 kts | 309° |
| 2026-04-26 15:04 | 44.25946 | 18.01361 | 34111 ft | 444 kts | 309° |
| 2026-04-26 15:04 | 44.29865 | 17.94764 | 34107 ft | 444 kts | 309° |
| 2026-04-26 15:05 | 44.33804 | 17.88124 | 34113 ft | 444 kts | 309° |
| 2026-04-26 15:05 | 44.37743 | 17.81477 | 34119 ft | 444 kts | 309° |
| 2026-04-26 15:06 | 44.41685 | 17.74824 | 34119 ft | 444 kts | 309° |
| 2026-04-26 15:06 | 44.45614 | 17.68170 | 34119 ft | 444 kts | 309° |
| 2026-04-26 15:07 | 44.51497 | 17.58166 | 34123 ft | 443 kts | 309° |
| 2026-04-26 15:07 | 44.55414 | 17.51484 | 34125 ft | 443 kts | 309° |
| 2026-04-26 15:08 | 44.59328 | 17.44790 | 34121 ft | 443 kts | 309° |
| 2026-04-26 15:08 | 44.63238 | 17.38082 | 34117 ft | 444 kts | 309° |
| 2026-04-26 15:09 | 44.67144 | 17.31370 | 34122 ft | 444 kts | 309° |
| 2026-04-26 15:09 | 44.71025 | 17.24694 | 34115 ft | 444 kts | 309° |
| 2026-04-26 15:10 | 44.74263 | 17.19104 | 34114 ft | 444 kts | 309° |
| 2026-04-26 15:10 | 44.78825 | 17.11233 | 34117 ft | 444 kts | 309° |
| 2026-04-26 15:11 | 44.82717 | 17.04489 | 34117 ft | 444 kts | 308° |
| 2026-04-26 15:11 | 44.86600 | 16.97728 | 34116 ft | 444 kts | 308° |
| 2026-04-26 15:12 | 44.90483 | 16.90968 | 34127 ft | 443 kts | 308° |
| 2026-04-26 15:12 | 44.94359 | 16.84202 | 34124 ft | 443 kts | 308° |
| 2026-04-26 15:13 | 44.98233 | 16.77435 | 34127 ft | 443 kts | 308° |
| 2026-04-26 15:13 | 45.02096 | 16.70660 | 34127 ft | 442 kts | 308° |
| 2026-04-26 15:14 | 45.05946 | 16.63876 | 34120 ft | 442 kts | 308° |
| 2026-04-26 15:14 | 45.09769 | 16.57132 | 34121 ft | 442 kts | 308° |
| 2026-04-26 15:15 | 45.13613 | 16.50327 | 34124 ft | 442 kts | 308° |
| 2026-04-26 15:15 | 45.17449 | 16.43514 | 34139 ft | 442 kts | 308° |
| 2026-04-26 15:16 | 45.21289 | 16.36713 | 34126 ft | 442 kts | 308° |
| 2026-04-26 15:16 | 45.25125 | 16.29900 | 34131 ft | 442 kts | 308° |
| 2026-04-26 15:17 | 45.28307 | 16.24220 | 34128 ft | 442 kts | 308° |
| 2026-04-26 15:17 | 45.32780 | 16.16230 | 34129 ft | 442 kts | 308° |
| 2026-04-26 15:18 | 45.36576 | 16.09427 | 34133 ft | 442 kts | 308° |
| 2026-04-26 15:18 | 45.40395 | 16.02561 | 34130 ft | 443 kts | 307° |
| 2026-04-26 15:19 | 45.44212 | 15.95683 | 34132 ft | 443 kts | 307° |
| 2026-04-26 15:19 | 45.48024 | 15.88790 | 34137 ft | 443 kts | 307° |
| 2026-04-26 15:20 | 45.51830 | 15.81902 | 34130 ft | 442 kts | 307° |
| 2026-04-26 15:20 | 45.55632 | 15.75001 | 34127 ft | 442 kts | 307° |
| 2026-04-26 15:21 | 45.59431 | 15.68094 | 34132 ft | 442 kts | 307° |
| 2026-04-26 15:21 | 45.63216 | 15.61184 | 34130 ft | 441 kts | 307° |
| 2026-04-26 15:22 | 45.66989 | 15.54283 | 34131 ft | 441 kts | 307° |
| 2026-04-26 15:22 | 45.70764 | 15.47361 | 34122 ft | 440 kts | 307° |
| 2026-04-26 15:23 | 45.74534 | 15.40440 | 34122 ft | 440 kts | 307° |
| 2026-04-26 15:23 | 45.78299 | 15.33518 | 34119 ft | 440 kts | 307° |
| 2026-04-26 15:24 | 45.82117 | 15.26659 | 34116 ft | 440 kts | 308° |
| 2026-04-26 15:24 | 45.85936 | 15.19867 | 34115 ft | 440 kts | 308° |
| 2026-04-26 15:25 | 45.89143 | 15.14129 | 34105 ft | 440 kts | 308° |
| 2026-04-26 15:25 | 45.93570 | 15.06148 | 34107 ft | 439 kts | 307° |
| 2026-04-26 15:26 | 45.97368 | 14.99278 | 34100 ft | 438 kts | 307° |
| 2026-04-26 15:26 | 46.01161 | 14.92422 | 34108 ft | 438 kts | 307° |
| 2026-04-26 15:27 | 46.04941 | 14.85557 | 34088 ft | 437 kts | 307° |
| 2026-04-26 15:27 | 46.08708 | 14.78692 | 34091 ft | 437 kts | 307° |
| 2026-04-26 15:28 | 46.12480 | 14.71818 | 34077 ft | 437 kts | 307° |
| 2026-04-26 15:28 | 46.16252 | 14.64923 | 34071 ft | 437 kts | 307° |
| 2026-04-26 15:29 | 46.20014 | 14.58021 | 34094 ft | 438 kts | 307° |
| 2026-04-26 15:30 | 46.27505 | 14.44229 | 34098 ft | 438 kts | 307° |
| 2026-04-26 15:30 | 46.31266 | 14.37292 | 34099 ft | 438 kts | 307° |
| 2026-04-26 15:31 | 46.36884 | 14.26877 | 34087 ft | 437 kts | 307° |
| 2026-04-26 15:32 | 46.41230 | 14.18795 | 34083 ft | 437 kts | 307° |
| 2026-04-26 15:32 | 46.46231 | 14.09482 | 34085 ft | 438 kts | 307° |
| 2026-04-26 15:33 | 46.49966 | 14.02488 | 34082 ft | 438 kts | 306° |
| 2026-04-26 15:33 | 46.53668 | 13.95531 | 34103 ft | 438 kts | 306° |
| 2026-04-26 15:34 | 46.57400 | 13.88521 | 34108 ft | 439 kts | 307° |
| 2026-04-26 15:34 | 46.61133 | 13.81501 | 34108 ft | 439 kts | 306° |
| 2026-04-26 15:35 | 46.64852 | 13.74463 | 34109 ft | 438 kts | 306° |
| 2026-04-26 15:35 | 46.68561 | 13.67436 | 34098 ft | 438 kts | 306° |
| 2026-04-26 15:36 | 46.72263 | 13.60400 | 34097 ft | 437 kts | 306° |
| 2026-04-26 15:36 | 46.75966 | 13.53360 | 34103 ft | 437 kts | 306° |
| 2026-04-26 15:37 | 46.79664 | 13.46313 | 34113 ft | 437 kts | 306° |
| 2026-04-26 15:37 | 46.83352 | 13.39258 | 34125 ft | 437 kts | 306° |
| 2026-04-26 15:38 | 46.87033 | 13.32196 | 34142 ft | 436 kts | 306° |
| 2026-04-26 15:38 | 46.90705 | 13.25131 | 34140 ft | 436 kts | 306° |
| 2026-04-26 15:39 | 46.94373 | 13.18058 | 34125 ft | 436 kts | 306° |
| 2026-04-26 15:39 | 46.96796 | 13.13381 | 34134 ft | 435 kts | 306° |
| 2026-04-26 15:40 | 47.01652 | 13.03963 | 34157 ft | 435 kts | 306° |
| 2026-04-26 15:40 | 47.05294 | 12.96884 | 34148 ft | 435 kts | 306° |
| 2026-04-26 15:41 | 47.08927 | 12.89801 | 34165 ft | 435 kts | 305° |
| 2026-04-26 15:41 | 47.12560 | 12.82704 | 34164 ft | 434 kts | 305° |
| 2026-04-26 15:42 | 47.16182 | 12.75615 | 34162 ft | 432 kts | 305° |
| 2026-04-26 15:42 | 47.19789 | 12.68534 | 34181 ft | 433 kts | 305° |
| 2026-04-26 15:43 | 47.23392 | 12.61434 | 34170 ft | 432 kts | 305° |
| 2026-04-26 15:44 | 47.28181 | 12.52000 | 34175 ft | 431 kts | 305° |
| 2026-04-26 15:44 | 47.34126 | 12.40206 | 34191 ft | 431 kts | 304° |
| 2026-04-26 15:45 | 47.38879 | 12.30748 | 34188 ft | 430 kts | 304° |
| 2026-04-26 15:46 | 47.44214 | 12.20093 | 34177 ft | 430 kts | 304° |
| 2026-04-26 15:46 | 47.47172 | 12.14176 | 34176 ft | 430 kts | 304° |
| 2026-04-26 15:47 | 47.52926 | 12.02139 | 34176 ft | 427 kts | 295° |
| 2026-04-26 15:48 | 47.54723 | 11.93841 | 34175 ft | 425 kts | 280° |
| 2026-04-26 15:48 | 47.55837 | 11.85246 | 34173 ft | 425 kts | 281° |
| 2026-04-26 15:49 | 47.56976 | 11.76647 | 34176 ft | 425 kts | 280° |
| 2026-04-26 15:49 | 47.58110 | 11.68048 | 34181 ft | 425 kts | 280° |
| 2026-04-26 15:50 | 47.59227 | 11.59450 | 34183 ft | 425 kts | 280° |
| 2026-04-26 15:50 | 47.60325 | 11.50900 | 34187 ft | 425 kts | 280° |
| 2026-04-26 15:51 | 47.61423 | 11.42303 | 34193 ft | 424 kts | 280° |
| 2026-04-26 15:51 | 47.62516 | 11.33707 | 34186 ft | 424 kts | 279° |
| 2026-04-26 15:52 | 47.63603 | 11.25113 | 34199 ft | 424 kts | 279° |
| 2026-04-26 15:52 | 47.64683 | 11.16523 | 34195 ft | 423 kts | 279° |
| 2026-04-26 15:53 | 47.65756 | 11.07937 | 34204 ft | 423 kts | 279° |
| 2026-04-26 15:53 | 47.66820 | 10.99350 | 34203 ft | 423 kts | 279° |
| 2026-04-26 15:54 | 47.67881 | 10.90764 | 34225 ft | 423 kts | 279° |
| 2026-04-26 15:54 | 47.68934 | 10.82175 | 34219 ft | 423 kts | 279° |
| 2026-04-26 15:55 | 47.69976 | 10.73570 | 34226 ft | 423 kts | 279° |
| 2026-04-26 15:55 | 47.71011 | 10.64966 | 34221 ft | 423 kts | 279° |
| 2026-04-26 15:56 | 47.72044 | 10.56364 | 34217 ft | 423 kts | 279° |
| 2026-04-26 15:56 | 47.73065 | 10.47806 | 34209 ft | 424 kts | 279° |
| 2026-04-26 15:57 | 47.74094 | 10.39128 | 34209 ft | 424 kts | 279° |
| 2026-04-26 15:57 | 47.74488 | 10.30481 | 34204 ft | 423 kts | 268° |
| 2026-04-26 15:58 | 47.74279 | 10.21740 | 34203 ft | 424 kts | 268° |
| 2026-04-26 15:58 | 47.74088 | 10.12989 | 34198 ft | 424 kts | 268° |
| 2026-04-26 15:59 | 47.73887 | 10.04221 | 34189 ft | 426 kts | 268° |
| 2026-04-26 15:59 | 47.73662 | 9.95425 | 34181 ft | 427 kts | 268° |
| 2026-04-26 16:00 | 47.73438 | 9.86613 | 34180 ft | 427 kts | 268° |
| 2026-04-26 16:00 | 47.73213 | 9.77779 | 34181 ft | 428 kts | 268° |
| 2026-04-26 16:01 | 47.72974 | 9.68938 | 34183 ft | 429 kts | 268° |
| 2026-04-26 16:01 | 47.72727 | 9.60068 | 34173 ft | 431 kts | 268° |
| 2026-04-26 16:01 | 47.72599 | 9.55615 | 33809 ft | 434 kts | 268° |
| 2026-04-26 16:02 | 47.72471 | 9.51139 | 32546 ft | 429 kts | 268° |
| 2026-04-26 16:02 | 47.72261 | 9.46774 | 31383 ft | 419 kts | 260° |
| 2026-04-26 16:02 | 47.71490 | 9.42655 | 30291 ft | 411 kts | 248° |
| 2026-04-26 16:02 | 47.70652 | 9.40154 | 29477 ft | 406 kts | 239° |
| 2026-04-26 16:03 | 47.68397 | 9.35738 | 27912 ft | 396 kts | 232° |
| 2026-04-26 16:03 | 47.66673 | 9.32616 | 26825 ft | 387 kts | 233° |
| 2026-04-26 16:03 | 47.64987 | 9.29559 | 25806 ft | 378 kts | 233° |
| 2026-04-26 16:03 | 47.63344 | 9.26580 | 24830 ft | 370 kts | 233° |
| 2026-04-26 16:04 | 47.61722 | 9.23639 | 23911 ft | 366 kts | 233° |
| 2026-04-26 16:04 | 47.60248 | 9.20657 | 22890 ft | 360 kts | 243° |
| 2026-04-26 16:04 | 47.59211 | 9.17336 | 21884 ft | 352 kts | 253° |
| 2026-04-26 16:04 | 47.58640 | 9.13852 | 20937 ft | 346 kts | 261° |
| 2026-04-26 16:05 | 47.58215 | 9.10357 | 20019 ft | 342 kts | 261° |
| 2026-04-26 16:05 | 47.57837 | 9.06899 | 19157 ft | 338 kts | 267° |
| 2026-04-26 16:05 | 47.57889 | 9.03446 | 18597 ft | 335 kts | 278° |
| 2026-04-26 16:05 | 47.58417 | 9.00106 | 18115 ft | 333 kts | 289° |
| 2026-04-26 16:06 | 47.59271 | 8.96920 | 17672 ft | 332 kts | 291° |
| 2026-04-26 16:06 | 47.60134 | 8.93751 | 17246 ft | 331 kts | 291° |
| 2026-04-26 16:06 | 47.60989 | 8.90600 | 16841 ft | 329 kts | 291° |
| 2026-04-26 16:06 | 47.61844 | 8.87453 | 16421 ft | 328 kts | 291° |
| 2026-04-26 16:07 | 47.62601 | 8.84279 | 16008 ft | 326 kts | 283° |
| 2026-04-26 16:07 | 47.62868 | 8.80950 | 15598 ft | 325 kts | 269° |
| 2026-04-26 16:07 | 47.62589 | 8.77638 | 15171 ft | 324 kts | 256° |
| 2026-04-26 16:07 | 47.61818 | 8.74501 | 14756 ft | 324 kts | 248° |
| 2026-04-26 16:08 | 47.60938 | 8.71427 | 14325 ft | 323 kts | 248° |
| 2026-04-26 16:08 | 47.60364 | 8.69406 | 14043 ft | 322 kts | 248° |
| 2026-04-26 16:08 | 47.59347 | 8.65266 | 13437 ft | 318 kts | 259° |
| 2026-04-26 16:08 | 47.59255 | 8.62059 | 13014 ft | 316 kts | 277° |
| 2026-04-26 16:09 | 47.59839 | 8.58939 | 12586 ft | 316 kts | 294° |
| 2026-04-26 16:09 | 47.61050 | 8.56256 | 12320 ft | 304 kts | 317° |
| 2026-04-26 16:09 | 47.62694 | 8.54380 | 12968 ft | 308 kts | 321° |
| 2026-04-26 16:09 | 47.64374 | 8.52308 | 12270 ft | 315 kts | 315° |
| 2026-04-26 16:10 | 47.65941 | 8.50060 | 11437 ft | 312 kts | 313° |
| 2026-04-26 16:10 | 47.67458 | 8.47775 | 10639 ft | 310 kts | 313° |
| 2026-04-26 16:10 | 47.68961 | 8.45530 | 10376 ft | 300 kts | 313° |
| 2026-04-26 16:10 | 47.70418 | 8.43412 | 10169 ft | 290 kts | 314° |
| 2026-04-26 16:11 | 47.71863 | 8.41359 | 9875 ft | 285 kts | 315° |
| 2026-04-26 16:11 | 47.73230 | 8.39243 | 9484 ft | 282 kts | 303° |
| 2026-04-26 16:11 | 47.74037 | 8.36581 | 8758 ft | 289 kts | 281° |
| 2026-04-26 16:11 | 47.74040 | 8.33560 | 7970 ft | 299 kts | 257° |
| 2026-04-26 16:12 | 47.73166 | 8.30725 | 7171 ft | 309 kts | 232° |
| 2026-04-26 16:12 | 47.71541 | 8.28632 | 6490 ft | 312 kts | 206° |
| 2026-04-26 16:12 | 47.67470 | 8.28141 | 5909 ft | 287 kts | 159° |
| 2026-04-26 16:13 | 47.65768 | 8.29514 | 5676 ft | 271 kts | 139° |
| 2026-04-26 16:13 | 47.64440 | 8.31307 | 5501 ft | 246 kts | 135° |
| 2026-04-26 16:13 | 47.63258 | 8.32948 | 5356 ft | 223 kts | 135° |
| 2026-04-26 16:13 | 47.62144 | 8.34488 | 5101 ft | 216 kts | 135° |
| 2026-04-26 16:14 | 47.61076 | 8.35957 | 4843 ft | 203 kts | 135° |
| 2026-04-26 16:14 | 47.60072 | 8.37339 | 4572 ft | 193 kts | 135° |
| 2026-04-26 16:14 | 47.58135 | 8.40002 | 4067 ft | 188 kts | 134° |
| 2026-04-26 16:15 | 47.57195 | 8.41292 | 3819 ft | 180 kts | 133° |
| 2026-04-26 16:15 | 47.56285 | 8.42541 | 3584 ft | 176 kts | 133° |
| 2026-04-26 16:15 | 47.55402 | 8.43754 | 3364 ft | 175 kts | 134° |
| 2026-04-26 16:16 | 47.53691 | 8.46098 | 2917 ft | 157 kts | 134° |
| 2026-04-26 16:16 | 47.52911 | 8.47168 | 2710 ft | 150 kts | 133° |
| 2026-04-26 16:16 | 47.52154 | 8.48213 | 2494 ft | 147 kts | 133° |
| 2026-04-26 16:16 | 47.51415 | 8.49242 | 2331 ft | 145 kts | 133° |
| 2026-04-26 16:17 | 47.50681 | 8.50250 | 2156 ft | 143 kts | 133° |
| 2026-04-26 16:17 | 47.49945 | 8.51250 | 1901 ft | 145 kts | 134° |
| 2026-04-26 16:17 | 47.49206 | 8.52252 | 1752 ft | 144 kts | 134° |
| 2026-04-26 16:17 | 47.48478 | 8.53247 | 1520 ft | 142 kts | 132° |
| 2026-04-26 16:18 | 47.47772 | 8.54215 | 1404 ft | 132 kts | 135° |
| 2026-04-26 16:18 | 47.46916 | 8.55375 | 1388 ft | 47 kts | 137° |
| 2026-04-26 16:19 | 47.46509 | 8.55709 | 1395 ft | 24 kts | 165° |
| 2026-04-26 16:19 | 47.46358 | 8.55801 | 1404 ft | 26 kts | 138° |
| 2026-04-26 16:19 | 47.46132 | 8.55995 | 1407 ft | 18 kts | 183° |
| 2026-04-26 16:20 | 47.45947 | 8.55959 | 1409 ft | 15 kts | 198° |
| 2026-04-26 16:20 | 47.45756 | 8.55874 | 1412 ft | 15 kts | 187° |
| 2026-04-26 16:20 | 47.45625 | 8.55855 | 1409 ft | 24 kts | 185° |
| 2026-04-26 16:21 | 47.45498 | 8.55876 | 1414 ft | 12 kts | 164° |
| 2026-04-26 16:21 | 47.45425 | 8.55873 | 1410 ft | 6 kts | 185° |
| 2026-04-26 16:21 | 47.45422 | 8.55872 | 1411 ft | 0 kts | 185° |